Accueil
METAR-TAF:

METAR-TAF

Aéroports :

Sofia, Bulgarie

Aéroport de Sofia

latitude: 42-39N, longitude: 023-23E, altitude: 586 m

Observation

Le bulletin a été fait il y a 21 minutes, à 01:30 UTC
Vent calme
Température 15°C
Humidité 82%
Pression 1019 hPa
Visibilité 10 km ou plus
pas de nuages en-dessous de 1500 mètres et pas de cumulonimbus.

METAR: LBSF 190130Z 00000KT CAVOK 15/12 Q1019 NOSIG

Heure: 04:51 (01:51 UTC)

Prévision

Le bulletin a été fait il y a 2 heures et 51 minutes, à 23:00 UTC
Prévision valable du 19 à 00 UTC au 19 à 24 UTC
Vent 4 kt de direction variable
Visibilité 10 km ou plus
pas de nuages en-dessous de 1500 mètres et pas de cumulonimbus.
Evoluant progressivement
du 19 à 11 UTC au 19 à 13 UTC
Vent 8 kt de est/nord-est

TAF: LBSF 182300Z 1900/1924 VRB04KT CAVOK BECMG 1911/1913 06008KT

Observations et prévisions météorologiques de plus de 4000 aéroports (messages METAR et TAF).

Les stations disponibles sont représentées par des disques jaunes et rouges sur la carte.

Passer la souris dessus pour voir le nom de la station.

Cliquer dessus pour voir les observations et prévisions météorologiques.

Pour changer de carte: cliquez sur les boutons verts avec une croix noire pour zoomer, sur le bouton vert avec un tiret pour effectuer un zoom arrière, ou sur les flèches vertes pour les cartes adjacentes.


METAR-TAF: